Time;durP1;ratioP1;P1;durP2;ratioP2;P2;SDS_P1;SDS_P2;PMS_P1;PMS_P2;Temp;Humidity;BMP_temperature;BMP_pressure;BME280_temperature;BME280_humidity;BME280_pressure;Samples;Min_cycle;Max_cycle;Signal;HPM_P1;HPM_P2
2023/03/19 00:01:53;;;;;;;2.65;2.45;;;12.80;99.90;;;;;;5005034;28;20194;-65
2023/03/19 00:04:19;;;;;;;3.55;2.45;;;12.60;99.90;;;;;;5010507;28;20191;-65
2023/03/19 00:06:44;;;;;;;6.30;3.80;;;12.40;99.90;;;;;;5004166;28;20215;-65
2023/03/19 00:09:11;;;;;;;5.90;3.25;;;12.40;99.90;;;;;;5013734;28;20211;-66
2023/03/19 00:11:37;;;;;;;4.63;3.33;;;12.60;99.90;;;;;;5011990;28;20217;-66
2023/03/19 00:14:05;;;;;;;9.55;3.65;;;12.50;99.90;;;;;;5011667;28;20183;-66
2023/03/19 00:16:31;;;;;;;4.28;3.42;;;12.50;99.90;;;;;;5001157;28;20228;-66
2023/03/19 00:18:57;;;;;;;4.57;3.50;;;12.60;99.90;;;;;;5005874;28;20233;-66
2023/03/19 00:21:22;;;;;;;7.05;4.25;;;12.60;99.90;;;;;;5012587;28;20211;-66
2023/03/19 00:23:48;;;;;;;5.72;4.32;;;12.50;99.90;;;;;;5004517;28;20195;-66
2023/03/19 00:26:14;;;;;;;9.35;4.15;;;12.50;99.90;;;;;;5013181;28;20191;-66
2023/03/19 00:28:40;;;;;;;4.72;4.03;;;12.60;99.90;;;;;;5013179;28;20270;-66
2023/03/19 00:31:08;;;;;;;5.50;4.25;;;12.60;99.90;;;;;;5010550;28;20433;-66
2023/03/19 00:33:34;;;;;;;4.85;4.03;;;12.40;99.90;;;;;;5010733;28;20186;-66
2023/03/19 00:36:00;;;;;;;5.38;3.55;;;12.50;99.90;;;;;;5001832;28;20192;-66
2023/03/19 00:38:26;;;;;;;6.63;3.83;;;12.40;99.90;;;;;;5004029;28;20640;-66
2023/03/19 00:40:52;;;;;;;6.68;4.35;;;12.30;99.90;;;;;;5004779;28;20190;-66
2023/03/19 00:43:17;;;;;;;5.07;4.00;;;12.30;99.90;;;;;;5013332;28;20194;-66
2023/03/19 00:45:43;;;;;;;7.00;4.72;;;12.30;99.90;;;;;;5007224;28;20238;-65
2023/03/19 00:48:08;;;;;;;5.75;4.13;;;12.20;99.90;;;;;;5007433;28;20238;-65
2023/03/19 00:50:34;;;;;;;5.88;4.63;;;12.20;99.90;;;;;;5010789;28;20194;-65
2023/03/19 00:53:00;;;;;;;4.90;4.30;;;12.30;99.90;;;;;;5008327;28;20187;-65
2023/03/19 00:55:26;;;;;;;7.97;4.38;;;12.30;99.90;;;;;;5015338;28;20180;-65
2023/03/19 00:57:52;;;;;;;5.50;4.35;;;12.60;99.90;;;;;;5014987;28;20207;-66
2023/03/19 01:00:18;;;;;;;5.63;3.83;;;12.40;99.90;;;;;;4997967;28;20194;-65
2023/03/19 01:02:44;;;;;;;4.93;4.35;;;12.40;99.90;;;;;;5007053;28;20219;-66
2023/03/19 01:05:10;;;;;;;6.53;3.90;;;12.30;99.90;;;;;;5012363;28;20321;-66
2023/03/19 01:07:36;;;;;;;4.72;4.00;;;12.30;99.90;;;;;;5025704;28;20268;-65
2023/03/19 01:10:02;;;;;;;5.10;3.83;;;12.30;99.90;;;;;;5011435;28;20182;-65
2023/03/19 01:12:28;;;;;;;6.53;4.18;;;12.30;99.90;;;;;;5030059;28;20195;-66
2023/03/19 01:14:53;;;;;;;4.93;3.88;;;12.40;99.90;;;;;;5008356;28;20603;-66
2023/03/19 01:17:19;;;;;;;6.88;4.70;;;12.40;99.90;;;;;;5014716;28;20238;-66
2023/03/19 01:19:45;;;;;;;5.63;4.65;;;12.50;99.90;;;;;;5028420;28;20189;-66
2023/03/19 01:22:11;;;;;;;5.22;3.97;;;12.50;99.90;;;;;;5003269;28;20191;-66
2023/03/19 01:24:37;;;;;;;6.93;4.90;;;12.40;99.90;;;;;;4993178;28;20234;-65
2023/03/19 01:27:03;;;;;;;9.77;5.25;;;12.50;99.90;;;;;;5031130;28;20659;-66
2023/03/19 01:29:29;;;;;;;6.50;4.03;;;12.40;99.90;;;;;;5016902;28;20236;-66
2023/03/19 01:31:55;;;;;;;8.73;5.25;;;12.40;99.90;;;;;;5007467;28;20191;-66
2023/03/19 01:34:21;;;;;;;8.88;5.35;;;12.50;99.90;;;;;;5024004;28;20187;-66
2023/03/19 01:36:47;;;;;;;7.88;5.82;;;12.50;99.90;;;;;;5014245;28;20211;-66
2023/03/19 01:39:13;;;;;;;4.82;4.07;;;12.40;99.90;;;;;;5023433;28;20194;-65
2023/03/19 01:41:39;;;;;;;9.10;4.60;;;12.40;99.90;;;;;;5021009;28;20664;-65
2023/03/19 01:44:33;;;;;;;5.93;4.57;;;12.50;99.90;;;;;;5016755;28;20188;-65
2023/03/19 01:47:04;;;;;;;5.00;4.32;;;12.50;99.90;;;;;;5013310;28;20190;-65
2023/03/19 01:49:30;;;;;;;5.40;4.45;;;12.50;99.90;;;;;;5021594;28;20186;-65
2023/03/19 01:51:59;;;;;;;7.70;4.97;;;12.50;99.90;;;;;;5016629;28;20535;-65
2023/03/19 01:54:26;;;;;;;6.88;4.70;;;12.60;99.90;;;;;;5010039;28;20202;-65
2023/03/19 01:57:03;;;;;;;7.25;4.57;;;12.70;99.90;;;;;;5020378;28;20679;-65
2023/03/19 01:59:51;;;;;;;6.07;4.78;;;12.60;99.90;;;;;;5012079;28;20194;-65
2023/03/19 02:02:31;;;;;;;9.20;5.85;;;12.60;99.90;;;;;;5008399;28;20193;-65
2023/03/19 02:05:02;;;;;;;8.75;5.60;;;12.40;99.90;;;;;;5017446;28;20649;-65
2023/03/19 02:07:33;;;;;;;7.05;4.60;;;12.40;99.90;;;;;;5016513;28;20190;-65
2023/03/19 02:10:00;;;;;;;6.85;5.07;;;12.50;99.90;;;;;;5010648;28;20188;-65
2023/03/19 02:12:27;;;;;;;6.53;4.50;;;12.50;99.90;;;;;;5014056;28;20182;-65
2023/03/19 02:14:52;;;;;;;7.75;5.32;;;12.60;99.90;;;;;;5025546;28;20639;-65
2023/03/19 02:17:20;;;;;;;6.57;5.22;;;12.60;99.90;;;;;;5016710;28;20269;-65
2023/03/19 02:20:17;;;;;;;6.18;5.47;;;12.70;99.90;;;;;;5026175;28;20198;-65
2023/03/19 02:23:04;;;;;;;10.35;5.20;;;12.70;99.90;;;;;;5020506;28;20178;-65
2023/03/19 02:25:38;;;;;;;7.97;5.32;;;12.80;99.90;;;;;;5017584;28;20184;-65
2023/03/19 02:28:05;;;;;;;8.68;5.25;;;12.80;99.90;;;;;;5007551;28;20189;-66
2023/03/19 02:30:32;;;;;;;6.43;4.88;;;12.80;99.90;;;;;;5015836;28;20204;-66
2023/03/19 02:32:58;;;;;;;6.68;5.07;;;12.80;99.90;;;;;;5027150;28;20258;-66
2023/03/19 02:35:25;;;;;;;10.43;6.65;;;12.70;99.90;;;;;;5029399;28;20189;-66
2023/03/19 02:37:51;;;;;;;10.63;5.13;;;12.70;99.90;;;;;;5028675;28;20742;-65
2023/03/19 02:40:21;;;;;;;7.97;4.82;;;12.70;99.90;;;;;;4994362;28;20283;-66
2023/03/19 02:42:46;;;;;;;7.10;5.57;;;12.70;99.90;;;;;;5052690;28;20681;-66
2023/03/19 02:45:13;;;;;;;10.85;5.72;;;12.70;99.90;;;;;;5024065;28;20191;-66
2023/03/19 02:47:39;;;;;;;6.65;5.38;;;12.60;99.90;;;;;;5010127;28;20278;-66
2023/03/19 02:50:06;;;;;;;8.15;5.28;;;12.50;99.90;;;;;;5026879;28;20682;-66
2023/03/19 02:52:32;;;;;;;6.90;5.60;;;12.40;99.90;;;;;;5027146;28;20218;-66
2023/03/19 02:54:58;;;;;;;7.30;5.72;;;12.40;99.90;;;;;;5010271;28;20223;-66
2023/03/19 02:57:24;;;;;;;10.23;6.18;;;12.50;99.90;;;;;;5010307;28;20220;-66
2023/03/19 02:59:49;;;;;;;9.60;6.93;;;12.50;99.90;;;;;;5003587;28;20303;-66
2023/03/19 03:02:15;;;;;;;8.60;6.50;;;12.50;99.90;;;;;;5029427;28;20662;-66
2023/03/19 03:04:41;;;;;;;7.05;5.93;;;12.40;99.90;;;;;;5007694;28;20188;-66
2023/03/19 03:07:07;;;;;;;9.13;6.63;;;12.50;99.90;;;;;;5026703;28;20192;-66
2023/03/19 03:09:33;;;;;;;9.25;6.68;;;12.40;99.90;;;;;;5025394;28;20187;-66
2023/03/19 03:11:59;;;;;;;10.45;7.30;;;12.40;99.90;;;;;;5017381;28;20188;-66
2023/03/19 03:14:25;;;;;;;10.55;7.10;;;12.20;99.90;;;;;;5029268;28;20195;-66
2023/03/19 03:16:51;;;;;;;7.90;6.35;;;12.10;99.90;;;;;;5021519;28;20239;-66
2023/03/19 03:19:17;;;;;;;10.13;7.25;;;12.10;99.90;;;;;;5024794;28;20657;-66
2023/03/19 03:21:42;;;;;;;14.25;8.20;;;12.10;99.90;;;;;;4999174;28;20711;-66
2023/03/19 03:24:08;;;;;;;11.30;7.78;;;12.00;99.90;;;;;;5023574;28;20225;-66
2023/03/19 03:26:37;;;;;;;10.95;7.40;;;11.90;99.90;;;;;;5022159;28;20191;-66
2023/03/19 03:29:06;;;;;;;18.40;7.95;;;11.90;99.90;;;;;;5017164;28;20213;-66
2023/03/19 03:31:33;;;;;;;10.73;7.45;;;11.80;99.90;;;;;;5028629;28;20210;-66
2023/03/19 03:33:59;;;;;;;12.20;7.53;;;11.70;99.90;;;;;;5027818;28;20281;-66
2023/03/19 03:36:26;;;;;;;10.27;6.80;;;11.70;99.90;;;;;;5024545;28;20195;-66
2023/03/19 03:38:52;;;;;;;10.80;7.30;;;11.60;99.90;;;;;;5016908;28;20206;-66
2023/03/19 03:41:18;;;;;;;9.10;7.10;;;11.50;99.90;;;;;;4996387;28;20724;-66
2023/03/19 03:43:44;;;;;;;14.40;7.47;;;11.40;99.90;;;;;;5013289;28;20257;-66
2023/03/19 03:46:10;;;;;;;14.13;8.77;;;11.40;99.90;;;;;;5022508;28;20192;-66
2023/03/19 03:48:35;;;;;;;11.68;9.43;;;11.50;99.90;;;;;;5031026;28;20197;-66
2023/03/19 03:51:02;;;;;;;13.55;8.65;;;11.50;99.90;;;;;;5027386;28;20188;-66
2023/03/19 03:53:27;;;;;;;11.40;7.93;;;11.40;99.90;;;;;;5062223;28;20175;-66
2023/03/19 03:55:53;;;;;;;14.18;9.35;;;11.40;99.90;;;;;;4997993;28;20523;-66
2023/03/19 03:58:19;;;;;;;12.57;7.88;;;11.30;99.90;;;;;;5009380;28;20215;-66
2023/03/19 04:00:46;;;;;;;14.27;8.32;;;11.20;99.90;;;;;;5012857;28;20186;-66
2023/03/19 04:03:12;;;;;;;18.60;9.73;;;11.20;99.90;;;;;;5012667;28;20184;-66
2023/03/19 04:05:38;;;;;;;14.30;8.75;;;11.30;99.90;;;;;;5024588;28;20699;-66
2023/03/19 04:08:06;;;;;;;12.63;8.43;;;11.30;99.90;;;;;;4996209;28;20203;-66
2023/03/19 04:10:34;;;;;;;15.02;7.72;;;11.30;99.90;;;;;;5022196;28;20190;-66
2023/03/19 04:13:00;;;;;;;12.02;8.27;;;11.30;99.90;;;;;;5017536;28;20198;-66
2023/03/19 04:15:26;;;;;;;15.48;9.68;;;11.20;99.90;;;;;;5026284;28;20211;-66
2023/03/19 04:17:52;;;;;;;15.88;8.95;;;11.30;99.90;;;;;;5025131;28;20734;-66
2023/03/19 04:20:18;;;;;;;11.50;7.57;;;11.30;99.90;;;;;;5035226;28;20196;-66
2023/03/19 04:22:44;;;;;;;18.52;9.10;;;11.20;99.90;;;;;;5014872;28;20247;-66
2023/03/19 04:25:10;;;;;;;10.82;7.28;;;11.20;99.90;;;;;;5036961;28;20651;-66
2023/03/19 04:27:36;;;;;;;18.88;8.15;;;11.20;99.90;;;;;;5007290;28;20274;-66
2023/03/19 04:30:03;;;;;;;15.75;8.30;;;11.30;99.90;;;;;;5026584;28;20655;-66
2023/03/19 04:32:28;;;;;;;12.77;8.00;;;11.20;99.90;;;;;;5022344;28;20232;-66
2023/03/19 04:34:55;;;;;;;14.07;8.50;;;11.10;99.90;;;;;;5022430;28;20187;-66
2023/03/19 04:37:20;;;;;;;12.80;8.65;;;11.10;99.90;;;;;;5013187;28;20720;-66
2023/03/19 04:39:46;;;;;;;12.35;8.48;;;11.10;99.90;;;;;;5025613;28;20188;-66
2023/03/19 04:42:12;;;;;;;13.02;8.32;;;11.00;99.90;;;;;;5007432;28;20192;-66
2023/03/19 04:44:37;;;;;;;13.38;8.52;;;11.00;99.90;;;;;;5020337;28;20197;-66
2023/03/19 04:47:04;;;;;;;13.85;9.07;;;11.00;99.90;;;;;;5026227;28;20206;-66
2023/03/19 04:49:32;;;;;;;14.88;9.48;;;11.00;99.90;;;;;;5012330;28;20184;-66
2023/03/19 04:51:58;;;;;;;15.77;9.65;;;10.90;99.90;;;;;;5023702;28;20193;-66
2023/03/19 04:54:24;;;;;;;13.30;9.02;;;10.90;99.90;;;;;;5025400;28;20187;-66
2023/03/19 04:56:50;;;;;;;14.93;9.25;;;10.90;99.90;;;;;;5019594;28;20296;-66
2023/03/19 04:59:16;;;;;;;14.70;8.25;;;11.00;99.90;;;;;;5013571;28;20202;-66
2023/03/19 05:01:42;;;;;;;11.85;7.47;;;11.10;99.90;;;;;;5004128;28;20192;-66
2023/03/19 05:04:08;;;;;;;13.05;8.25;;;11.00;99.90;;;;;;5014659;28;20184;-66
2023/03/19 05:06:35;;;;;;;12.02;7.63;;;10.90;99.90;;;;;;5004197;28;20679;-66
2023/03/19 05:09:01;;;;;;;12.45;7.47;;;10.90;99.90;;;;;;5021792;28;20203;-66
2023/03/19 05:11:27;;;;;;;10.38;5.93;;;10.80;99.90;;;;;;5001155;28;20239;-66
2023/03/19 05:13:52;;;;;;;12.30;6.10;;;10.70;99.90;;;;;;5027682;28;20199;-66
2023/03/19 05:16:19;;;;;;;12.43;6.78;;;10.60;99.90;;;;;;5022346;28;20223;-66
2023/03/19 05:18:44;;;;;;;9.23;6.13;;;10.60;99.90;;;;;;5016739;28;20192;-66
2023/03/19 05:21:11;;;;;;;11.23;7.20;;;10.50;99.90;;;;;;5021916;28;20707;-66
2023/03/19 05:23:38;;;;;;;11.90;6.23;;;10.40;99.90;;;;;;5046950;28;20180;-66
2023/03/19 05:26:03;;;;;;;15.03;7.33;;;10.30;99.90;;;;;;5023684;28;20193;-66
2023/03/19 05:28:29;;;;;;;11.47;6.37;;;10.30;99.90;;;;;;5009705;28;20192;-66
2023/03/19 05:30:55;;;;;;;13.80;8.03;;;10.30;99.90;;;;;;5018428;28;20553;-66
2023/03/19 05:33:21;;;;;;;15.40;8.70;;;10.30;99.90;;;;;;5011644;28;20728;-66
2023/03/19 05:35:47;;;;;;;14.83;8.20;;;10.50;99.90;;;;;;5017851;28;20676;-66
2023/03/19 05:38:14;;;;;;;13.20;8.33;;;10.50;99.90;;;;;;5020731;28;20989;-66
2023/03/19 05:40:43;;;;;;;11.57;7.83;;;10.50;99.90;;;;;;5049909;28;20191;-66
2023/03/19 05:43:09;;;;;;;17.87;9.27;;;10.50;99.90;;;;;;5029798;28;20198;-66
2023/03/19 05:45:36;;;;;;;12.83;8.43;;;10.40;99.90;;;;;;5004483;28;20180;-66
2023/03/19 05:48:05;;;;;;;14.20;8.63;;;10.50;99.90;;;;;;5002635;28;20714;-66
2023/03/19 05:50:32;;;;;;;13.27;9.00;;;10.50;99.90;;;;;;5010651;28;20191;-65
2023/03/19 05:52:58;;;;;;;13.00;9.03;;;10.40;99.90;;;;;;4995116;28;20267;-66
2023/03/19 05:55:24;;;;;;;12.83;7.63;;;10.40;99.90;;;;;;5018195;28;20282;-66
2023/03/19 05:57:50;;;;;;;13.33;7.67;;;10.40;99.90;;;;;;5009021;28;20586;-66
2023/03/19 06:00:17;;;;;;;13.80;6.83;;;10.50;99.90;;;;;;5010731;28;20302;-66
2023/03/19 06:02:43;;;;;;;11.97;8.17;;;10.30;99.90;;;;;;5001075;28;20196;-66
2023/03/19 06:05:09;;;;;;;13.37;7.07;;;10.40;99.90;;;;;;5021847;28;20539;-66
2023/03/19 06:07:35;;;;;;;11.60;7.10;;;10.30;99.90;;;;;;5014963;28;20199;-65
2023/03/19 06:10:01;;;;;;;11.47;7.43;;;10.40;99.90;;;;;;5011911;28;20564;-66
2023/03/19 06:12:27;;;;;;;13.17;8.13;;;10.50;99.90;;;;;;5014058;28;20580;-65
2023/03/19 06:14:53;;;;;;;10.90;6.80;;;10.60;99.90;;;;;;5009541;28;20625;-65
2023/03/19 06:17:18;;;;;;;17.60;7.57;;;10.50;99.90;;;;;;5025751;28;20234;-66
2023/03/19 06:19:45;;;;;;;10.83;7.13;;;10.50;99.90;;;;;;5021955;28;20589;-65
2023/03/19 06:22:11;;;;;;;8.10;5.83;;;10.40;99.90;;;;;;5006157;28;20703;-65
2023/03/19 06:24:36;;;;;;;9.53;6.27;;;10.40;99.90;;;;;;5008787;28;20195;-66
2023/03/19 06:27:02;;;;;;;12.70;6.93;;;10.30;99.90;;;;;;5001130;28;20656;-66
2023/03/19 06:29:28;;;;;;;14.17;7.17;;;10.30;99.90;;;;;;5007374;28;20786;-65
2023/03/19 06:31:54;;;;;;;10.20;6.20;;;10.30;99.90;;;;;;5009452;28;20192;-65
2023/03/19 06:34:20;;;;;;;14.93;6.23;;;10.50;99.90;;;;;;5013674;28;20198;-66
2023/03/19 06:36:46;;;;;;;9.70;5.17;;;10.80;99.90;;;;;;5011185;28;20219;-65
2023/03/19 06:39:12;;;;;;;10.53;5.83;;;10.80;99.90;;;;;;5011625;28;20210;-65
2023/03/19 06:41:38;;;;;;;11.27;5.23;;;10.80;99.90;;;;;;5009825;28;20641;-62
2023/03/19 06:44:04;;;;;;;17.37;6.50;;;10.60;99.90;;;;;;5005680;28;20195;-62
2023/03/19 06:46:30;;;;;;;11.27;5.77;;;10.50;99.90;;;;;;5031081;28;20194;-62
2023/03/19 06:48:56;;;;;;;12.47;7.07;;;10.40;99.90;;;;;;5009299;28;20683;-62
2023/03/19 06:51:22;;;;;;;7.20;5.23;;;10.40;99.90;;;;;;5004578;28;20227;-63
2023/03/19 06:53:48;;;;;;;8.83;4.93;;;10.30;99.90;;;;;;5020466;28;20199;-63
2023/03/19 06:56:14;;;;;;;6.83;5.10;;;10.20;99.90;;;;;;5010169;28;20649;-63
2023/03/19 06:58:40;;;;;;;14.40;6.70;;;10.30;99.90;;;;;;5041612;28;20285;-62
2023/03/19 07:01:06;;;;;;;12.03;6.43;;;10.20;99.90;;;;;;5012737;28;20271;-61
2023/03/19 07:03:32;;;;;;;8.50;5.80;;;10.40;99.90;;;;;;5014020;28;20190;-61
2023/03/19 07:05:57;;;;;;;12.37;6.10;;;10.40;99.90;;;;;;5001747;28;20189;-63
2023/03/19 07:08:28;;;;;;;11.27;6.03;;;10.30;99.90;;;;;;5001216;28;20218;-64
2023/03/19 07:11:01;;;;;;;10.23;7.03;;;10.40;99.90;;;;;;4999908;28;20271;-62
2023/03/19 07:13:27;;;;;;;15.33;7.07;;;10.50;99.90;;;;;;4998216;28;20294;-62
2023/03/19 07:15:53;;;;;;;10.70;5.87;;;10.60;99.90;;;;;;5006990;28;20313;-62
2023/03/19 07:18:18;;;;;;;8.93;5.40;;;10.70;99.90;;;;;;5011291;28;20223;-63
2023/03/19 07:20:45;;;;;;;12.57;5.73;;;10.70;99.90;;;;;;5004963;28;20195;-62
2023/03/19 07:23:10;;;;;;;13.83;7.47;;;11.00;99.90;;;;;;5015262;28;20714;-62
2023/03/19 07:25:36;;;;;;;10.48;5.85;;;11.60;99.90;;;;;;5013282;28;20191;-62
2023/03/19 07:28:02;;;;;;;8.13;5.35;;;12.70;99.90;;;;;;5005840;28;20199;-63
2023/03/19 07:30:28;;;;;;;11.63;5.57;;;13.70;99.90;;;;;;5020829;28;20729;-63
2023/03/19 07:32:54;;;;;;;9.20;6.10;;;14.50;99.90;;;;;;5015293;28;20222;-64
2023/03/19 07:35:20;;;;;;;10.57;4.85;;;15.60;99.90;;;;;;5014519;28;20223;-62
2023/03/19 07:37:46;;;;;;;11.13;4.45;;;16.20;99.90;;;;;;4999486;28;20243;-62
2023/03/19 07:40:12;;;;;;;8.32;3.70;;;16.60;99.90;;;;;;5007335;28;20241;-63
2023/03/19 07:42:38;;;;;;;5.97;3.58;;;17.20;99.90;;;;;;5006377;28;20189;-62
2023/03/19 07:45:04;;;;;;;4.38;3.30;;;17.80;99.90;;;;;;5017051;28;20187;-63
2023/03/19 07:47:30;;;;;;;9.20;3.75;;;18.50;99.90;;;;;;5016102;28;20661;-63
2023/03/19 07:49:56;;;;;;;6.03;3.13;;;19.40;99.90;;;;;;5010601;28;20179;-63
2023/03/19 07:52:23;;;;;;;8.27;4.10;;;19.70;99.90;;;;;;5013521;28;20241;-63
2023/03/19 07:54:49;;;;;;;8.35;3.00;;;20.10;99.90;;;;;;5009585;28;20191;-64
2023/03/19 07:57:15;;;;;;;9.35;3.55;;;20.00;99.90;;;;;;5007015;28;20216;-62
2023/03/19 07:59:41;;;;;;;9.13;2.95;;;20.40;99.90;;;;;;5013613;28;20544;-63
2023/03/19 08:02:12;;;;;;;7.18;2.17;;;20.70;99.90;;;;;;5013450;28;20194;-61
2023/03/19 08:04:39;;;;;;;8.40;3.25;;;20.90;99.90;;;;;;5014282;28;20179;-62
2023/03/19 08:07:05;;;;;;;7.20;2.88;;;20.90;99.90;;;;;;5007669;28;20191;-62
2023/03/19 08:09:31;;;;;;;7.55;2.95;;;21.10;99.90;;;;;;5013402;28;20191;-63
2023/03/19 08:11:57;;;;;;;5.15;3.10;;;21.00;99.90;;;;;;5011963;28;20651;-62
2023/03/19 08:14:23;;;;;;;4.75;2.58;;;21.10;99.90;;;;;;5004246;28;20249;-62
2023/03/19 08:16:49;;;;;;;5.13;3.17;;;20.40;99.90;;;;;;5001304;28;20290;-62
2023/03/19 08:19:15;;;;;;;10.30;4.57;;;20.50;99.90;;;;;;5012777;28;20636;-62
2023/03/19 08:21:41;;;;;;;6.07;3.17;;;20.70;99.90;;;;;;5009275;28;20188;-63
2023/03/19 08:24:07;;;;;;;6.47;3.38;;;20.80;99.90;;;;;;5009466;28;20258;-62
2023/03/19 08:26:33;;;;;;;6.97;2.80;;;21.30;99.90;;;;;;5011316;28;20187;-62
2023/03/19 08:28:59;;;;;;;5.35;2.83;;;21.50;99.90;;;;;;5006377;28;21166;-62
2023/03/19 08:31:25;;;;;;;6.28;2.47;;;21.60;99.90;;;;;;5004802;28;20197;-64
2023/03/19 08:33:51;;;;;;;3.33;2.20;;;21.30;99.90;;;;;;5030549;28;20277;-62
2023/03/19 08:36:17;;;;;;;5.30;3.08;;;21.80;99.90;;;;;;5008503;28;20279;-62
2023/03/19 08:38:43;;;;;;;6.43;2.65;;;22.00;99.90;;;;;;5008765;28;20211;-61
2023/03/19 08:41:09;;;;;;;3.55;1.75;;;22.30;99.90;;;;;;5024095;28;20652;-63
2023/03/19 08:43:36;;;;;;;6.20;2.78;;;22.00;99.90;;;;;;5003765;28;20246;-63
2023/03/19 08:46:03;;;;;;;7.88;3.33;;;20.60;99.90;;;;;;5021575;28;20635;-62
2023/03/19 08:48:29;;;;;;;5.63;2.20;;;19.60;99.90;;;;;;5012574;28;20188;-62
2023/03/19 08:50:57;;;;;;;10.50;3.42;;;19.20;99.90;;;;;;5017666;28;20278;-61
2023/03/19 08:53:24;;;;;;;3.90;2.20;;;18.70;99.90;;;;;;5022310;28;20663;-61
2023/03/19 08:55:55;;;;;;;6.03;2.88;;;17.70;99.90;;;;;;5011548;28;20195;-61
2023/03/19 08:58:21;;;;;;;4.07;2.67;;;17.10;99.90;;;;;;5008091;28;20219;-63
2023/03/19 09:00:48;;;;;;;5.20;3.03;;;16.80;99.90;;;;;;5028238;28;20183;-63
2023/03/19 09:03:14;;;;;;;3.20;2.80;;;16.50;99.90;;;;;;5026834;28;20221;-63
2023/03/19 09:05:40;;;;;;;7.57;3.55;;;16.60;99.90;;;;;;5003147;28;20195;-64
2023/03/19 09:08:06;;;;;;;3.40;2.85;;;16.60;99.90;;;;;;5012239;28;20683;-64
2023/03/19 09:10:32;;;;;;;3.90;2.85;;;16.60;99.90;;;;;;5011250;28;20188;-64
2023/03/19 09:12:58;;;;;;;5.10;3.10;;;16.70;99.90;;;;;;5012075;28;20187;-64
2023/03/19 09:15:25;;;;;;;5.30;3.03;;;16.90;99.90;;;;;;5004758;28;20203;-64
2023/03/19 09:17:51;;;;;;;3.05;2.75;;;17.10;99.90;;;;;;5007809;28;20259;-64
2023/03/19 09:20:17;;;;;;;5.68;2.83;;;17.30;99.90;;;;;;5009480;28;20230;-64
2023/03/19 09:22:43;;;;;;;8.88;3.53;;;17.30;99.90;;;;;;5011659;28;20179;-64
2023/03/19 09:25:08;;;;;;;5.38;2.85;;;17.10;99.90;;;;;;5009027;28;20195;-64
2023/03/19 09:27:34;;;;;;;5.55;2.90;;;17.10;99.90;;;;;;5010097;28;20184;-64
2023/03/19 09:30:00;;;;;;;10.30;3.35;;;17.00;99.90;;;;;;5011652;28;20246;-63
2023/03/19 09:32:26;;;;;;;4.15;2.67;;;16.60;99.90;;;;;;5016608;28;20191;-65
2023/03/19 09:34:52;;;;;;;11.07;2.97;;;16.60;99.90;;;;;;5011466;28;20278;-63
2023/03/19 09:37:17;;;;;;;4.32;2.92;;;16.40;99.90;;;;;;5012058;28;20261;-66
2023/03/19 09:39:43;;;;;;;4.22;2.38;;;16.10;99.90;;;;;;5009636;28;20207;-65
2023/03/19 09:42:36;;;;;;;6.65;2.15;;;16.00;99.90;;;;;;5005858;28;20692;-65
2023/03/19 09:45:02;;;;;;;8.75;2.67;;;15.90;99.90;;;;;;5012094;28;20221;-66
2023/03/19 09:47:33;;;;;;;6.50;2.95;;;15.80;99.90;;;;;;5029817;28;20219;-65
2023/03/19 09:50:09;;;;;;;7.00;2.40;;;15.50;99.90;;;;;;5023558;28;20194;-65
2023/03/19 09:52:56;;;;;;;3.53;2.67;;;15.60;99.90;;;;;;5016074;28;20285;-65
2023/03/19 09:55:51;;;;;;;4.72;2.65;;;15.80;99.90;;;;;;5019856;28;20248;-65
2023/03/19 09:58:22;;;;;;;5.72;2.55;;;16.20;99.90;;;;;;5025191;28;20301;-65
2023/03/19 10:00:52;;;;;;;5.70;2.83;;;16.50;99.90;;;;;;5018258;28;20178;-64
2023/03/19 10:03:20;;;;;;;5.32;3.35;;;16.90;99.90;;;;;;5008872;28;20195;-64
2023/03/19 10:06:01;;;;;;;5.10;3.60;;;17.00;99.90;;;;;;5020283;28;20191;-65
2023/03/19 10:09:02;;;;;;;7.78;2.60;;;17.10;99.90;;;;;;5027482;28;20196;-64
2023/03/19 10:11:34;;;;;;;2.28;1.90;;;17.00;99.90;;;;;;5017967;28;20194;-65
2023/03/19 10:14:18;;;;;;;3.38;2.40;;;16.80;99.90;;;;;;5005416;28;20190;-64
2023/03/19 10:16:47;;;;;;;9.75;3.85;;;16.50;99.90;;;;;;5009996;28;20239;-64
2023/03/19 10:19:21;;;;;;;7.05;3.70;;;16.40;99.90;;;;;;5016455;28;20202;-64
2023/03/19 10:21:59;;;;;;;11.55;4.50;;;16.40;99.90;;;;;;5016363;28;20178;-64
2023/03/19 10:24:30;;;;;;;16.08;6.18;;;16.70;99.90;;;;;;5018635;28;20197;-64
2023/03/19 10:27:00;;;;;;;8.55;4.65;;;16.70;99.90;;;;;;5020569;28;20260;-64
2023/03/19 10:29:27;;;;;;;8.43;4.40;;;16.70;99.90;;;;;;5005926;28;20178;-64
2023/03/19 10:32:17;;;;;;;11.00;5.47;;;16.50;99.90;;;;;;5015719;28;20182;-64
2023/03/19 10:34:52;;;;;;;6.15;4.03;;;16.10;99.90;;;;;;5007885;28;20209;-64
2023/03/19 10:37:27;;;;;;;11.57;5.13;;;16.00;99.90;;;;;;5007235;28;20322;-64
2023/03/19 10:39:58;;;;;;;6.95;4.28;;;16.00;99.90;;;;;;5023834;28;20182;-64
2023/03/19 10:42:49;;;;;;;8.65;5.20;;;16.30;99.90;;;;;;5009569;28;20222;-65
2023/03/19 10:45:30;;;;;;;10.57;4.63;;;16.40;99.90;;;;;;5017981;28;20541;-64
2023/03/19 10:47:58;;;;;;;6.40;4.10;;;16.80;99.90;;;;;;5011602;28;20188;-65
2023/03/19 10:50:28;;;;;;;9.13;4.55;;;17.20;99.90;;;;;;5014687;28;20186;-65
2023/03/19 10:53:20;;;;;;;5.50;4.45;;;17.50;99.90;;;;;;5026572;28;20179;-64
2023/03/19 10:55:52;;;;;;;8.65;4.70;;;17.30;99.90;;;;;;5011730;28;20187;-64
2023/03/19 10:58:22;;;;;;;6.57;4.10;;;17.00;99.90;;;;;;5027421;28;20235;-65
2023/03/19 11:00:56;;;;;;;7.82;5.22;;;16.90;99.90;;;;;;5012721;28;20189;-66
2023/03/19 11:03:35;;;;;;;8.27;4.85;;;16.90;99.90;;;;;;5014036;28;20752;-65
2023/03/19 11:06:30;;;;;;;10.98;5.05;;;16.90;99.90;;;;;;5020690;28;20667;-64
2023/03/19 11:09:07;;;;;;;8.50;5.10;;;16.80;99.90;;;;;;5009974;28;20201;-65
2023/03/19 11:11:56;;;;;;;8.65;4.22;;;16.60;99.90;;;;;;5019940;28;20707;-64
2023/03/19 11:14:45;;;;;;;15.18;4.55;;;16.60;99.90;;;;;;5009435;28;20182;-64
2023/03/19 11:17:37;;;;;;;5.93;3.83;;;16.30;99.90;;;;;;5027386;28;20659;-64
2023/03/19 11:20:22;;;;;;;10.43;3.85;;;16.60;99.90;;;;;;5009031;28;20172;-65
2023/03/19 11:22:50;;;;;;;9.02;5.43;;;16.40;99.90;;;;;;5008791;28;20303;-64
2023/03/19 11:25:48;;;;;;;10.43;5.97;;;16.10;99.90;;;;;;5004684;28;20241;-64
2023/03/19 11:28:16;;;;;;;10.20;6.32;;;15.60;99.90;;;;;;4985450;28;20211;-64
2023/03/19 11:30:57;;;;;;;13.57;8.57;;;15.00;99.90;;;;;;5001478;28;20183;-64
2023/03/19 11:33:41;;;;;;;16.95;11.15;;;15.00;99.90;;;;;;5019988;28;20826;-65
2023/03/19 11:36:29;;;;;;;27.58;16.67;;;14.90;99.90;;;;;;5030083;28;20259;-65
2023/03/19 11:39:26;;;;;;;13.75;9.15;;;14.90;99.90;;;;;;5039298;28;20603;-64
2023/03/19 11:42:29;;;;;;;20.33;13.73;;;15.00;99.90;;;;;;5033334;28;20649;-64
2023/03/19 11:45:20;;;;;;;15.23;8.23;;;15.00;99.90;;;;;;5021943;28;20183;-64
2023/03/19 11:48:01;;;;;;;15.00;9.25;;;15.00;99.90;;;;;;5022202;28;20571;-64
2023/03/19 11:50:44;;;;;;;13.75;9.70;;;15.10;99.90;;;;;;5006151;28;20190;-65
2023/03/19 11:53:36;;;;;;;17.92;8.27;;;15.40;99.90;;;;;;5016933;28;20266;-64
2023/03/19 11:56:22;;;;;;;12.90;7.55;;;15.90;99.90;;;;;;5019011;28;20187;-64
2023/03/19 11:59:06;;;;;;;16.48;8.90;;;16.00;99.90;;;;;;5014900;28;20253;-64
2023/03/19 12:01:50;;;;;;;14.65;8.05;;;16.50;99.90;;;;;;5028461;28;20530;-65
2023/03/19 12:04:42;;;;;;;14.60;8.20;;;16.70;99.90;;;;;;5015929;28;20684;-64
2023/03/19 12:07:23;;;;;;;12.38;8.38;;;16.90;99.90;;;;;;5011640;28;20179;-65
2023/03/19 12:10:17;;;;;;;9.00;6.97;;;16.90;99.90;;;;;;5030290;28;20190;-65
2023/03/19 12:12:55;;;;;;;14.32;7.85;;;16.50;99.90;;;;;;5024837;28;20187;-65
2023/03/19 12:15:32;;;;;;;23.92;13.55;;;16.20;99.90;;;;;;5020695;28;20175;-65
2023/03/19 12:18:23;;;;;;;22.88;10.50;;;15.90;99.90;;;;;;5016789;28;20297;-65
2023/03/19 12:21:13;;;;;;;14.23;8.50;;;15.90;99.90;;;;;;5034790;28;20489;-65
2023/03/19 12:24:10;;;;;;;10.30;7.10;;;15.90;99.90;;;;;;5000321;28;20272;-65
2023/03/19 12:26:54;;;;;;;14.07;9.52;;;15.70;99.90;;;;;;5019096;28;20182;-65
2023/03/19 12:29:30;;;;;;;18.42;8.45;;;15.90;99.90;;;;;;5021144;28;20182;-65
2023/03/19 12:32:16;;;;;;;13.27;7.95;;;16.00;99.90;;;;;;5013787;28;20175;-65
2023/03/19 12:34:51;;;;;;;14.75;8.82;;;16.10;99.90;;;;;;5001876;28;20659;-65
2023/03/19 12:37:35;;;;;;;10.85;8.10;;;16.10;99.90;;;;;;5024574;28;20255;-65
2023/03/19 12:40:06;;;;;;;13.93;7.88;;;16.40;99.90;;;;;;5015432;28;20178;-65
2023/03/19 12:42:37;;;;;;;13.00;8.07;;;16.60;99.90;;;;;;5015856;28;20176;-65
2023/03/19 12:45:14;;;;;;;11.57;6.47;;;16.70;99.90;;;;;;5027274;28;20550;-65
2023/03/19 12:47:43;;;;;;;13.95;7.75;;;16.80;99.90;;;;;;5022733;28;20266;-65
2023/03/19 12:50:13;;;;;;;12.45;7.20;;;16.60;99.90;;;;;;5014073;28;20182;-65
2023/03/19 12:52:48;;;;;;;11.13;7.00;;;16.70;99.90;;;;;;5022535;28;20715;-65
2023/03/19 12:55:44;;;;;;;11.32;6.38;;;16.90;99.90;;;;;;5026795;28;20175;-65
2023/03/19 12:58:25;;;;;;;9.77;5.93;;;17.40;99.90;;;;;;5015451;28;20676;-65